Camp Crook, South Dakota
Current Conditions -  °F | °C
As of 2:51 PM on Sunday 25 Jan 2015 (Local Time) from KBHK Reporting Station
Clear Clear  
Wind Chill: 42°   Ceiling: Unl
Heat Index: 47°   Visibility: 10mi
Dew Point: 35°   Wind: 12mph
Humidity: 63%   Direction: 260°W
Pressure: 29.88"   Gusts: NA
Location:  45.55°N, 103.97°W
Report Text: KBHK 252151Z AUTO 26010KT 10SM CLR 08/02 A2988 RMK AO2 SLP135 T00830017
Loading
Personal Weather Stations






























Interactive Weather Map New forecast layout! Learn more

10-Day Weather Forecast

Advertisements
Track Severe Weather on mobile